Time;durP1;ratioP1;P1;durP2;ratioP2;P2;SDS_P1;SDS_P2;PMS_P1;PMS_P2;Temp;Humidity;BMP_temperature;BMP_pressure;BME280_temperature;BME280_humidity;BME280_pressure;Samples;Min_cycle;Max_cycle;Signal;HPM_P1;HPM_P2
2022/12/15 00:39:31;;;;;;;21.00;14.57;;;7.00;87.40;;;;;;10716791;33;20391;-74
2022/12/15 01:23:56;;;;;;;14.93;11.45;;;7.20;87.60;;;;;;10715489;33;20048;-73
2022/12/15 01:29:58;;;;;;;26.92;21.27;;;7.20;87.60;;;;;;10715429;33;20083;-74
2022/12/15 01:36:01;;;;;;;19.55;14.43;;;7.20;87.70;;;;;;10715288;33;20060;-73
2022/12/15 01:42:03;;;;;;;12.77;10.10;;;7.20;87.60;;;;;;10714992;33;20052;-74
2022/12/15 01:48:08;;;;;;;16.15;10.35;;;7.10;87.60;;;;;;10714974;33;20018;-74
2022/12/15 01:54:46;;;;;;;14.75;11.88;;;7.00;87.80;;;;;;10712427;33;20398;-74
2022/12/15 02:00:48;;;;;;;17.62;11.57;;;7.20;87.90;;;;;;10714727;33;20052;-73
2022/12/15 02:06:51;;;;;;;17.70;11.82;;;7.20;87.80;;;;;;10710469;33;20033;-73
2022/12/15 02:13:05;;;;;;;22.42;16.75;;;7.20;87.60;;;;;;10714473;33;20047;-74
2022/12/15 02:19:30;;;;;;;17.08;12.57;;;7.50;87.50;;;;;;10711493;33;20029;-74
2022/12/15 02:26:14;;;;;;;14.50;11.10;;;7.50;87.10;;;;;;10720598;33;20018;-74
2022/12/15 02:32:30;;;;;;;18.20;15.38;;;7.60;87.00;;;;;;10832300;32;20334;-74
2022/12/15 02:38:37;;;;;;;19.40;15.95;;;7.40;87.00;;;;;;10832050;32;20042;-74
2022/12/15 02:44:39;;;;;;;16.27;12.50;;;7.50;86.90;;;;;;10832851;32;20449;-73
2022/12/15 02:51:06;;;;;;;19.73;15.48;;;7.60;86.80;;;;;;10832599;32;20426;-73
2022/12/15 02:57:23;;;;;;;20.30;14.50;;;7.80;86.60;;;;;;10829481;32;20045;-74
2022/12/15 03:03:26;;;;;;;19.48;15.65;;;7.90;86.20;;;;;;10735597;32;20033;-73
2022/12/15 03:09:30;;;;;;;25.12;19.25;;;7.70;85.90;;;;;;10719427;33;20072;-74
2022/12/15 03:15:32;;;;;;;22.80;19.27;;;7.80;85.90;;;;;;10715465;33;20025;-73
2022/12/15 03:21:34;;;;;;;18.65;13.43;;;8.10;85.40;;;;;;10718875;33;20055;-73
2022/12/15 03:27:36;;;;;;;19.90;14.52;;;8.00;85.10;;;;;;10718918;33;20017;-73
2022/12/15 03:33:38;;;;;;;20.95;14.05;;;8.20;85.60;;;;;;10717902;33;20026;-74
2022/12/15 03:39:40;;;;;;;24.37;16.67;;;8.40;85.50;;;;;;10714329;33;20055;-73
2022/12/15 03:45:42;;;;;;;19.58;14.35;;;8.50;85.20;;;;;;10718484;33;20026;-73
2022/12/15 03:51:45;;;;;;;22.80;17.12;;;8.50;85.00;;;;;;10717560;33;20021;-73
2022/12/15 03:57:47;;;;;;;18.30;13.82;;;8.70;85.90;;;;;;10717903;33;20032;-74
2022/12/15 04:03:49;;;;;;;19.70;16.12;;;8.80;86.40;;;;;;10717694;33;20060;-74
2022/12/15 04:09:51;;;;;;;20.25;14.98;;;8.70;86.10;;;;;;10717589;33;20059;-73
2022/12/15 04:15:53;;;;;;;23.92;16.83;;;8.60;86.70;;;;;;10717549;33;20326;-73
2022/12/15 04:21:56;;;;;;;21.92;17.35;;;8.40;86.10;;;;;;10767074;32;20292;-74
2022/12/15 05:31:57;;;;;;;19.50;15.82;;;8.70;85.80;;;;;;10715632;33;20395;-73
2022/12/15 05:37:59;;;;;;;21.17;17.12;;;8.70;85.70;;;;;;10715292;33;20078;-73
2022/12/15 05:44:01;;;;;;;16.98;12.50;;;8.60;85.60;;;;;;10712874;33;20037;-74
2022/12/15 05:50:03;;;;;;;24.58;19.00;;;8.70;85.60;;;;;;10764394;32;20028;-74
2022/12/15 05:56:08;;;;;;;22.58;15.98;;;8.60;85.40;;;;;;10764073;32;20025;-73
2022/12/15 06:02:11;;;;;;;15.75;12.88;;;8.60;85.20;;;;;;10714698;33;20063;-73
2022/12/15 06:08:12;;;;;;;19.05;15.23;;;8.70;85.40;;;;;;10714572;33;20024;-74
2022/12/15 06:14:15;;;;;;;22.52;16.75;;;8.70;85.10;;;;;;10714495;33;20048;-73
2022/12/15 06:20:17;;;;;;;16.77;13.27;;;8.80;84.70;;;;;;10714132;33;20429;-74
2022/12/15 06:26:20;;;;;;;18.20;13.38;;;8.90;84.80;;;;;;10714278;33;20021;-74
2022/12/15 06:32:22;;;;;;;21.45;17.05;;;9.10;85.10;;;;;;10713632;33;20025;-73
2022/12/15 06:38:28;;;;;;;21.25;15.15;;;9.20;85.80;;;;;;10678390;33;20034;-73
2022/12/15 06:44:30;;;;;;;16.92;15.00;;;9.20;86.10;;;;;;10677729;33;20056;-74
2022/12/15 06:50:33;;;;;;;15.65;13.00;;;9.20;85.80;;;;;;10677419;33;20108;-73
2022/12/15 06:56:35;;;;;;;18.35;14.32;;;9.10;86.30;;;;;;10677371;33;20028;-73
2022/12/15 07:02:38;;;;;;;14.68;10.43;;;9.20;86.10;;;;;;10673675;33;20052;-73
2022/12/15 07:08:51;;;;;;;14.27;10.45;;;9.10;85.80;;;;;;10702205;33;20069;-77
2022/12/15 07:14:53;;;;;;;14.73;11.07;;;9.20;86.00;;;;;;10759958;32;20056;-77
2022/12/15 07:21:03;;;;;;;13.88;10.60;;;9.00;85.50;;;;;;10714685;33;20032;-77
2022/12/15 07:33:35;;;;;;;13.80;9.88;;;9.20;85.80;;;;;;10679242;33;20052;-77
2022/12/15 07:39:57;;;;;;;11.48;8.13;;;9.40;85.90;;;;;;10682334;33;20388;-76
2022/12/15 07:45:59;;;;;;;28.12;12.13;;;9.30;86.20;;;;;;10731729;32;20064;-77
2022/12/15 07:52:01;;;;;;;12.70;9.80;;;9.40;86.20;;;;;;10682082;33;20025;-77
2022/12/15 07:58:03;;;;;;;20.48;13.20;;;9.50;85.70;;;;;;10681715;33;20033;-77
2022/12/15 08:04:05;;;;;;;21.23;13.38;;;9.40;85.00;;;;;;10726483;32;20059;-77
2022/12/15 08:10:08;;;;;;;17.45;14.15;;;9.50;85.10;;;;;;10705128;32;20033;-77
2022/12/15 08:16:11;;;;;;;21.52;14.15;;;9.50;84.70;;;;;;10681391;33;20021;-77
2022/12/15 08:22:14;;;;;;;18.37;12.57;;;9.60;84.50;;;;;;10313441;27;12118994;-77
2022/12/15 08:28:16;;;;;;;13.70;10.73;;;9.80;84.40;;;;;;10639056;33;20034;-77
2022/12/15 08:34:20;;;;;;;17.33;14.50;;;9.90;84.60;;;;;;10642276;33;20056;-77
2022/12/15 08:40:25;;;;;;;14.98;10.20;;;10.00;84.40;;;;;;10641474;33;20077;-77
2022/12/15 08:46:30;;;;;;;22.13;16.50;;;9.90;84.40;;;;;;10655185;33;20417;-78
2022/12/15 08:53:19;;;;;;;19.50;14.68;;;9.70;84.80;;;;;;10739793;33;20043;-78
2022/12/15 08:59:21;;;;;;;22.33;17.85;;;9.50;85.40;;;;;;10748605;33;20269;-77
2022/12/15 09:05:23;;;;;;;17.58;12.00;;;9.40;86.30;;;;;;10750336;33;20029;-78
2022/12/15 09:11:27;;;;;;;16.83;11.85;;;9.60;86.10;;;;;;10739189;33;20028;-78
2022/12/15 09:17:29;;;;;;;15.45;12.77;;;9.60;85.90;;;;;;10747835;33;20074;-74
2022/12/15 09:23:33;;;;;;;18.00;13.80;;;9.70;86.10;;;;;;10751774;33;20346;-74
2022/12/15 09:29:37;;;;;;;16.77;14.10;;;9.90;86.00;;;;;;10750901;33;20043;-74
2022/12/15 09:35:39;;;;;;;29.23;16.37;;;9.80;86.30;;;;;;10751456;33;20058;-74
2022/12/15 09:41:48;;;;;;;16.98;13.60;;;9.80;86.50;;;;;;10751376;33;20070;-74
2022/12/15 09:48:11;;;;;;;17.58;14.27;;;9.70;87.10;;;;;;10751386;33;20060;-74
2022/12/15 09:54:13;;;;;;;17.52;13.23;;;9.80;87.10;;;;;;10751164;33;20374;-74
2022/12/15 10:00:24;;;;;;;18.60;14.85;;;9.80;87.30;;;;;;10750821;33;20020;-74
2022/12/15 10:06:42;;;;;;;20.95;14.35;;;9.90;87.30;;;;;;10750046;33;20308;-74
2022/12/15 10:12:46;;;;;;;20.83;15.68;;;9.90;87.10;;;;;;10750708;33;20013;-74
2022/12/15 10:19:10;;;;;;;23.10;16.42;;;10.00;87.30;;;;;;10746558;33;20051;-74
2022/12/15 10:25:20;;;;;;;21.23;15.60;;;10.00;87.60;;;;;;10750213;33;20330;-73
2022/12/15 10:31:35;;;;;;;22.05;17.95;;;10.10;87.40;;;;;;10750455;33;20046;-74
2022/12/15 10:37:38;;;;;;;18.65;13.18;;;10.00;87.50;;;;;;10748559;33;20437;-74
2022/12/15 10:43:48;;;;;;;16.52;12.70;;;9.80;88.10;;;;;;10754426;33;20092;-74
2022/12/15 10:49:52;;;;;;;22.50;17.98;;;9.70;88.00;;;;;;10756241;33;20086;-74
2022/12/15 10:56:00;;;;;;;17.30;14.20;;;9.60;88.00;;;;;;10756138;33;20346;-74
2022/12/15 11:02:22;;;;;;;19.67;14.60;;;9.40;88.10;;;;;;10742807;33;20059;-74
2022/12/15 11:08:32;;;;;;;21.25;14.27;;;9.30;87.30;;;;;;10751700;33;20029;-74
2022/12/15 11:14:49;;;;;;;16.40;12.60;;;9.00;86.70;;;;;;10751194;33;20036;-74
2022/12/15 11:21:10;;;;;;;22.75;15.57;;;9.10;87.50;;;;;;10751040;33;20403;-74
2022/12/15 11:27:26;;;;;;;19.37;13.05;;;9.30;87.20;;;;;;10755192;33;20028;-74
2022/12/15 11:33:28;;;;;;;17.30;12.65;;;9.30;87.30;;;;;;10755081;33;20110;-74
2022/12/15 11:39:33;;;;;;;13.88;9.45;;;9.50;87.40;;;;;;10739314;33;20430;-74
2022/12/15 11:45:51;;;;;;;17.25;10.45;;;9.60;87.30;;;;;;10754336;33;20047;-74
2022/12/15 11:52:15;;;;;;;18.80;10.68;;;9.70;87.40;;;;;;10753704;33;20024;-74
2022/12/15 11:58:51;;;;;;;13.02;9.00;;;9.70;87.70;;;;;;10741317;33;20040;-74
2022/12/15 12:05:18;;;;;;;11.02;8.27;;;9.80;87.50;;;;;;10752782;33;20029;-74
2022/12/15 12:11:48;;;;;;;14.25;10.18;;;9.70;87.50;;;;;;10753189;33;20414;-74
2022/12/15 12:17:52;;;;;;;9.57;7.87;;;9.70;87.90;;;;;;10749568;33;20064;-74
2022/12/15 12:24:01;;;;;;;11.38;7.32;;;9.50;87.40;;;;;;10751195;33;20122;-74
2022/12/15 12:30:14;;;;;;;12.77;7.87;;;9.30;87.40;;;;;;10753254;33;20051;-74
2022/12/15 12:36:37;;;;;;;11.77;8.77;;;9.20;87.40;;;;;;10752785;33;20032;-74
2022/12/15 12:42:55;;;;;;;12.37;7.60;;;8.90;86.70;;;;;;10752839;33;20106;-74
2022/12/15 12:49:06;;;;;;;12.45;8.18;;;8.90;87.10;;;;;;10752914;33;20432;-74
2022/12/15 12:55:11;;;;;;;11.12;7.37;;;9.00;88.10;;;;;;10749614;33;20036;-74
2022/12/15 13:01:24;;;;;;;11.82;9.15;;;9.30;88.50;;;;;;10752188;33;20055;-74
2022/12/15 13:07:39;;;;;;;10.75;7.30;;;9.20;87.10;;;;;;10751730;33;20056;-74
2022/12/15 13:13:44;;;;;;;11.18;7.95;;;9.20;87.90;;;;;;10751976;33;20433;-74
2022/12/15 13:19:55;;;;;;;12.10;7.78;;;9.00;87.30;;;;;;10747873;33;20032;-74
2022/12/15 13:25:57;;;;;;;11.02;7.28;;;9.10;87.70;;;;;;10751671;33;20421;-75
2022/12/15 13:31:59;;;;;;;17.52;9.57;;;9.20;87.80;;;;;;10751293;33;20063;-74
2022/12/15 13:38:02;;;;;;;15.20;9.65;;;9.20;87.80;;;;;;10738309;33;20020;-75
2022/12/15 13:44:17;;;;;;;18.00;11.63;;;9.10;87.40;;;;;;10751192;33;20032;-74
2022/12/15 13:50:30;;;;;;;14.95;9.88;;;9.20;87.50;;;;;;10747241;33;20102;-74
2022/12/15 13:56:35;;;;;;;15.43;10.65;;;9.00;87.30;;;;;;10747874;33;20020;-74
2022/12/15 14:02:37;;;;;;;14.32;10.40;;;9.20;87.70;;;;;;10750911;33;20037;-74
2022/12/15 14:08:40;;;;;;;14.95;10.65;;;9.40;87.50;;;;;;10749406;33;20059;-74
2022/12/15 14:14:46;;;;;;;12.55;9.18;;;9.60;87.00;;;;;;10750890;33;20024;-74
2022/12/15 14:20:49;;;;;;;13.25;10.18;;;9.50;87.00;;;;;;10740050;33;20036;-73
2022/12/15 14:26:51;;;;;;;20.85;12.00;;;9.40;87.10;;;;;;10757149;33;20052;-74
2022/12/15 14:33:06;;;;;;;15.30;10.68;;;9.30;87.00;;;;;;10743769;33;20033;-78
2022/12/15 14:39:23;;;;;;;14.23;9.10;;;9.40;87.60;;;;;;10756142;33;20043;-77
2022/12/15 14:45:29;;;;;;;12.75;8.93;;;9.30;87.60;;;;;;10756351;33;20036;-75
2022/12/15 14:51:45;;;;;;;11.88;8.02;;;9.60;87.80;;;;;;10753819;32;20308;-75
2022/12/15 14:57:47;;;;;;;14.68;8.82;;;9.80;87.50;;;;;;10756129;33;20021;-75
2022/12/15 15:04:36;;;;;;;9.77;7.97;;;9.70;87.40;;;;;;10755730;33;20055;-76
2022/12/15 15:10:39;;;;;;;8.93;7.03;;;9.60;87.20;;;;;;10767052;33;20025;-73
2022/12/15 15:16:42;;;;;;;7.18;5.62;;;9.50;88.40;;;;;;10755676;33;20024;-73
2022/12/15 15:22:45;;;;;;;10.20;7.28;;;9.70;88.30;;;;;;10766384;33;20063;-76
2022/12/15 15:28:53;;;;;;;10.60;8.00;;;9.70;88.50;;;;;;10755111;33;20048;-77
2022/12/15 15:34:57;;;;;;;8.85;7.10;;;9.70;88.50;;;;;;10755233;33;20029;-76
2022/12/15 15:41:18;;;;;;;9.90;6.75;;;9.60;88.60;;;;;;10755577;33;20055;-77
2022/12/15 15:47:24;;;;;;;10.32;6.50;;;9.50;88.80;;;;;;10754807;33;20090;-79
2022/12/15 15:53:29;;;;;;;11.77;7.93;;;9.60;88.20;;;;;;10752877;33;20029;-78
2022/12/15 15:59:32;;;;;;;10.50;7.55;;;9.60;88.60;;;;;;10754113;33;20072;-78
2022/12/15 16:05:34;;;;;;;11.75;7.65;;;9.60;88.50;;;;;;10754265;33;20517;-78
2022/12/15 16:11:37;;;;;;;10.75;7.30;;;9.60;88.60;;;;;;10754293;33;20418;-79
2022/12/15 16:17:39;;;;;;;11.52;8.25;;;9.40;88.40;;;;;;10751677;33;20399;-78
2022/12/15 16:23:46;;;;;;;10.65;7.30;;;9.20;88.30;;;;;;10833064;27;20084;-78
2022/12/15 16:29:49;;;;;;;7.22;5.20;;;9.00;88.20;;;;;;10906913;32;20058;-79
2022/12/15 16:35:52;;;;;;;11.80;7.65;;;8.70;88.20;;;;;;10902565;32;20046;-78
2022/12/15 16:41:56;;;;;;;13.07;9.02;;;8.60;88.50;;;;;;10905930;32;20058;-78
2022/12/15 16:47:58;;;;;;;9.52;5.07;;;8.60;88.70;;;;;;10890097;32;20309;-79
2022/12/15 16:54:00;;;;;;;9.52;6.32;;;8.40;88.50;;;;;;10905481;32;20046;-78
2022/12/15 17:00:14;;;;;;;9.20;6.25;;;8.40;88.20;;;;;;10905715;32;20011;-79
2022/12/15 17:06:17;;;;;;;11.60;6.95;;;8.30;88.40;;;;;;10902545;32;20057;-77
2022/12/15 17:12:20;;;;;;;14.02;9.95;;;8.30;88.50;;;;;;10905267;32;20045;-77
2022/12/15 17:18:22;;;;;;;10.43;7.32;;;8.10;87.20;;;;;;10905052;32;20015;-78
2022/12/15 17:24:24;;;;;;;12.18;8.35;;;7.70;87.70;;;;;;10904932;32;20023;-78
2022/12/15 17:30:26;;;;;;;11.60;8.15;;;7.80;88.50;;;;;;10904069;32;20114;-78
2022/12/15 17:36:29;;;;;;;8.07;6.07;;;8.00;88.40;;;;;;10890834;32;20329;-78
2022/12/15 17:42:31;;;;;;;10.35;7.62;;;8.20;89.10;;;;;;10904310;32;20062;-77
2022/12/15 17:48:33;;;;;;;13.23;8.32;;;8.30;88.60;;;;;;10904428;32;20019;-77
2022/12/15 17:54:53;;;;;;;10.15;7.03;;;8.30;88.90;;;;;;10890510;32;20034;-77
2022/12/15 18:00:56;;;;;;;13.45;8.48;;;8.40;89.00;;;;;;10904132;32;20011;-77
2022/12/15 18:06:58;;;;;;;9.63;6.82;;;8.50;88.80;;;;;;10904060;32;20024;-78
2022/12/15 18:13:10;;;;;;;11.15;8.32;;;8.60;88.80;;;;;;10886784;32;20382;-77
2022/12/15 18:19:13;;;;;;;10.63;7.82;;;8.70;89.10;;;;;;10903765;32;20046;-78
2022/12/15 18:25:28;;;;;;;9.50;6.65;;;8.60;88.60;;;;;;10903547;32;20049;-78
2022/12/15 18:31:32;;;;;;;8.73;5.97;;;8.70;89.10;;;;;;10855984;32;20031;-78
2022/12/15 18:37:35;;;;;;;12.02;6.85;;;8.90;88.90;;;;;;10866230;32;20103;-78
2022/12/15 18:43:39;;;;;;;10.25;6.95;;;8.90;88.70;;;;;;10866155;32;20350;-78
2022/12/15 18:49:41;;;;;;;10.35;5.37;;;8.90;88.90;;;;;;10865202;32;20047;-78
2022/12/15 18:55:44;;;;;;;9.35;4.87;;;8.80;89.10;;;;;;10865971;32;20020;-78
2022/12/15 19:01:47;;;;;;;9.38;6.10;;;8.80;89.30;;;;;;10865868;32;20027;-78
2022/12/15 19:07:49;;;;;;;6.35;4.90;;;8.90;89.20;;;;;;10872544;32;20046;-78
2022/12/15 19:13:51;;;;;;;9.43;6.97;;;9.00;89.10;;;;;;10872243;32;20085;-79
2022/12/15 19:26:14;;;;;;;7.60;5.35;;;8.90;88.80;;;;;;10871806;32;20016;-77
2022/12/15 19:32:17;;;;;;;9.95;7.00;;;8.90;89.30;;;;;;10879198;32;20031;-77
2022/12/15 19:38:26;;;;;;;9.85;6.35;;;8.90;89.30;;;;;;10908727;32;20023;-74
2022/12/15 19:44:31;;;;;;;11.07;8.27;;;8.90;89.50;;;;;;10905720;32;20464;-74
2022/12/15 19:50:37;;;;;;;9.18;5.85;;;8.90;89.10;;;;;;10907298;32;20062;-74
2022/12/15 19:56:39;;;;;;;8.30;6.82;;;8.70;89.30;;;;;;10908238;32;20054;-72
2022/12/15 20:02:41;;;;;;;9.90;6.62;;;8.70;89.20;;;;;;10907835;32;20303;-73
2022/12/15 20:08:46;;;;;;;14.82;7.03;;;8.50;89.50;;;;;;10907671;32;20024;-72
2022/12/15 20:14:48;;;;;;;6.50;4.43;;;8.50;89.60;;;;;;10906705;32;20027;-73
2022/12/15 20:20:50;;;;;;;8.93;5.60;;;8.30;89.50;;;;;;10902895;32;20032;-73
2022/12/15 20:26:52;;;;;;;9.25;5.95;;;8.30;89.60;;;;;;10904004;32;20097;-74
2022/12/15 20:32:54;;;;;;;8.18;4.97;;;8.30;89.90;;;;;;10904482;32;20345;-73
2022/12/15 20:38:57;;;;;;;6.43;3.78;;;8.40;89.90;;;;;;10905634;32;20027;-73
2022/12/15 20:44:59;;;;;;;8.25;5.20;;;8.40;90.00;;;;;;10906366;32;20027;-74
2022/12/15 20:51:01;;;;;;;11.45;4.75;;;8.50;90.00;;;;;;10906171;32;20031;-78
2022/12/15 20:57:07;;;;;;;7.25;5.00;;;8.40;89.90;;;;;;10901622;32;20050;-76
2022/12/15 21:03:20;;;;;;;6.37;4.05;;;8.30;90.40;;;;;;10905593;32;20066;-77
2022/12/15 21:09:23;;;;;;;9.30;3.42;;;8.20;90.50;;;;;;10905694;32;20046;-76
2022/12/15 21:15:25;;;;;;;5.30;3.67;;;8.30;90.60;;;;;;10901883;32;20054;-75
2022/12/15 21:21:33;;;;;;;4.45;3.10;;;8.40;90.90;;;;;;10900850;32;20046;-76
2022/12/15 21:27:36;;;;;;;6.72;4.32;;;8.50;91.10;;;;;;10904937;32;20024;-76
2022/12/15 21:33:39;;;;;;;4.70;3.05;;;8.80;91.00;;;;;;10904170;32;20393;-76
2022/12/15 21:39:41;;;;;;;6.55;4.05;;;8.70;90.40;;;;;;10904654;32;20031;-76
2022/12/15 21:45:44;;;;;;;5.05;2.83;;;8.60;90.80;;;;;;10906322;32;20019;-76
2022/12/15 21:51:59;;;;;;;5.55;3.28;;;8.70;91.10;;;;;;10902633;32;20027;-76
2022/12/15 21:58:01;;;;;;;5.18;3.00;;;8.90;91.00;;;;;;10901847;32;20081;-76
2022/12/15 22:04:09;;;;;;;4.95;2.97;;;8.90;90.80;;;;;;10904065;32;20058;-76
2022/12/15 22:10:12;;;;;;;5.85;3.50;;;8.80;90.50;;;;;;10902492;32;20054;-76
2022/12/15 22:17:17;;;;;;;5.30;3.28;;;8.80;90.60;;;;;;10904085;32;20053;-78
2022/12/15 22:23:19;;;;;;;6.20;4.30;;;8.80;90.60;;;;;;10903609;32;20050;-78
2022/12/15 22:29:22;;;;;;;8.88;6.03;;;8.80;90.40;;;;;;10903458;32;20019;-78
2022/12/15 22:35:25;;;;;;;8.18;5.32;;;8.90;90.50;;;;;;10903085;32;20020;-78
2022/12/15 22:41:27;;;;;;;7.15;4.43;;;9.00;91.10;;;;;;10910839;32;20019;-77
2022/12/15 22:47:36;;;;;;;6.43;3.90;;;9.30;90.90;;;;;;10910753;32;20034;-76
2022/12/15 22:53:38;;;;;;;7.07;5.18;;;9.20;90.70;;;;;;10907468;32;20015;-77
2022/12/15 22:59:46;;;;;;;6.68;3.72;;;9.30;91.00;;;;;;10910420;32;20023;-76
2022/12/15 23:05:48;;;;;;;7.78;5.03;;;9.20;90.60;;;;;;10909068;32;20023;-76
2022/12/15 23:11:51;;;;;;;6.05;3.08;;;9.20;90.60;;;;;;10904836;32;20411;-77
2022/12/15 23:17:55;;;;;;;4.87;2.85;;;9.20;90.60;;;;;;10909681;32;20014;-77
2022/12/15 23:23:58;;;;;;;3.65;2.17;;;9.10;90.80;;;;;;10908243;32;20030;-73
2022/12/15 23:30:00;;;;;;;4.00;2.35;;;9.20;90.80;;;;;;10909195;32;20313;-73
2022/12/15 23:36:05;;;;;;;5.07;3.33;;;9.20;90.70;;;;;;10908933;32;20051;-73
2022/12/15 23:42:17;;;;;;;4.60;2.90;;;9.30;90.50;;;;;;10908756;32;20030;-73
2022/12/15 23:48:39;;;;;;;4.22;2.47;;;9.40;90.30;;;;;;10907543;32;20042;-73
2022/12/15 23:54:41;;;;;;;3.65;2.20;;;9.20;90.20;;;;;;10908259;32;20055;-73
